createdAt,value
2018-12-31T00:00:08.774Z,97.65
2018-12-31T00:01:07.205Z,97.55
2018-12-31T00:02:07.205Z,97.55
2018-12-31T00:03:07.195Z,97.65
2018-12-31T00:04:07.200Z,97.24
2018-12-31T00:05:07.172Z,97.24
2018-12-31T00:06:07.149Z,97.44
2018-12-31T00:07:07.146Z,96.72
2018-12-31T00:08:07.134Z,97.44
2018-12-31T00:09:07.116Z,97.55
2018-12-31T00:10:07.124Z,97.13
2018-12-31T00:11:07.102Z,97.55
2018-12-31T00:12:07.185Z,97.34
2018-12-31T00:13:07.071Z,97.24
2018-12-31T00:14:07.065Z,97.03
2018-12-31T00:15:07.054Z,97.28
2018-12-31T00:16:07.055Z,97.24
2018-12-31T00:17:07.027Z,97.86
2018-12-31T00:18:07.034Z,97.96
2018-12-31T00:19:07.011Z,97.86
2018-12-31T00:20:06.997Z,97.80
2018-12-31T00:21:06.984Z,97.55
2018-12-31T00:22:06.997Z,97.65
2018-12-31T00:23:06.964Z,97.44
2018-12-31T00:24:06.950Z,97.55
2018-12-31T00:25:06.944Z,97.86
2018-12-31T00:26:06.924Z,98.11
2018-12-31T00:27:06.913Z,98.22
2018-12-31T00:28:06.951Z,98.01
2018-12-31T00:29:06.887Z,97.86
2018-12-31T00:30:06.881Z,98.07
2018-12-31T00:31:06.874Z,98.69
2018-12-31T00:32:06.856Z,98.48
2018-12-31T00:33:06.857Z,98.90
2018-12-31T00:34:06.856Z,98.80
2018-12-31T00:35:06.832Z,98.90
2018-12-31T00:36:06.812Z,98.59
2018-12-31T00:37:06.805Z,98.80
2018-12-31T00:38:06.823Z,98.80
2018-12-31T00:39:06.793Z,98.94
2018-12-31T00:40:06.795Z,99.15
2018-12-31T00:41:06.758Z,98.69
2018-12-31T00:42:06.748Z,98.80
2018-12-31T00:43:06.735Z,99.21
2018-12-31T00:44:06.734Z,99.77
2018-12-31T00:45:06.717Z,99.63
2018-12-31T00:46:06.739Z,99.42
2018-12-31T00:47:06.692Z,99.21
2018-12-31T00:48:06.677Z,99.21
2018-12-31T00:49:06.679Z,99.42
2018-12-31T00:50:06.658Z,99.42
2018-12-31T00:51:06.643Z,99.63
2018-12-31T00:52:06.656Z,99.32
2018-12-31T00:53:06.619Z,99.11
2018-12-31T00:54:06.633Z,98.59
2018-12-31T00:55:06.597Z,99.01
2018-12-31T00:56:06.589Z,98.69
2018-12-31T00:57:06.571Z,98.69
2018-12-31T00:58:06.596Z,98.84
2018-12-31T00:59:06.553Z,97.96
2018-12-31T01:00:06.564Z,98.11
2018-12-31T01:01:06.534Z,97.96
2018-12-31T01:02:06.517Z,97.96
2018-12-31T01:03:06.510Z,98.07
2018-12-31T01:04:06.522Z,98.17
2018-12-31T01:05:06.513Z,98.17
2018-12-31T01:06:06.471Z,98.27
2018-12-31T01:07:06.463Z,98.38
2018-12-31T01:08:06.452Z,98.38
2018-12-31T01:09:06.443Z,98.43
2018-12-31T01:10:06.448Z,98.38
2018-12-31T01:11:06.431Z,98.38
2018-12-31T01:12:06.413Z,97.86
2018-12-31T01:13:06.395Z,97.86
2018-12-31T01:14:06.386Z,98.07
2018-12-31T01:15:06.375Z,98.48
2018-12-31T01:16:06.404Z,98.38
2018-12-31T01:17:06.345Z,98.38
2018-12-31T01:18:06.341Z,98.17
2018-12-31T01:19:06.336Z,98.07
2018-12-31T01:20:06.316Z,98.27
2018-12-31T01:21:06.316Z,98.07
2018-12-31T01:22:06.311Z,98.07
2018-12-31T01:23:06.289Z,97.96
2018-12-31T01:24:06.287Z,98.69
2018-12-31T01:25:06.263Z,98.27
2018-12-31T01:26:06.260Z,98.48
2018-12-31T01:27:06.237Z,98.80
2018-12-31T01:28:06.251Z,98.17
2018-12-31T01:29:06.218Z,98.38
2018-12-31T01:30:06.210Z,97.96
2018-12-31T01:31:06.218Z,98.80
2018-12-31T01:32:06.179Z,98.80
2018-12-31T01:33:06.175Z,98.69
2018-12-31T01:34:06.192Z,98.59
2018-12-31T01:35:06.149Z,98.69
2018-12-31T01:36:06.136Z,98.44
2018-12-31T01:37:06.149Z,98.80
2018-12-31T01:38:06.126Z,98.59
2018-12-31T01:39:06.107Z,98.59
2018-12-31T01:40:06.117Z,98.80
2018-12-31T01:41:06.085Z,98.69
2018-12-31T01:42:06.065Z,98.07
2018-12-31T01:43:06.075Z,98.17
2018-12-31T01:44:06.060Z,98.23
2018-12-31T01:45:06.036Z,97.86
2018-12-31T01:46:06.023Z,98.17
2018-12-31T01:47:06.052Z,98.59
2018-12-31T01:48:06.016Z,98.59
2018-12-31T01:49:05.992Z,98.48
2018-12-31T01:50:05.976Z,98.02
2018-12-31T01:51:11.268Z,98.13
2018-12-31T01:52:06.960Z,98.13
2018-12-31T01:53:05.978Z,97.50
2018-12-31T01:54:05.937Z,97.50
2018-12-31T01:55:05.924Z,97.92
2018-12-31T01:56:05.919Z,98.44
2018-12-31T01:57:05.901Z,98.54
2018-12-31T01:58:05.912Z,98.44
2018-12-31T01:59:05.907Z,98.02
2018-12-31T02:00:05.864Z,98.02
2018-12-31T02:01:05.856Z,98.44
2018-12-31T02:02:05.847Z,98.23
2018-12-31T02:03:05.844Z,98.23
2018-12-31T02:04:05.825Z,98.23
2018-12-31T02:05:05.857Z,98.13
2018-12-31T02:06:05.798Z,98.13
2018-12-31T02:07:05.787Z,98.23
2018-12-31T02:08:05.800Z,98.02
2018-12-31T02:09:05.840Z,98.13
2018-12-31T02:10:05.758Z,97.81
2018-12-31T02:11:05.767Z,98.44
2018-12-31T02:12:05.731Z,98.65
2018-12-31T02:13:05.724Z,98.85
2018-12-31T02:14:05.713Z,98.44
2018-12-31T02:15:05.710Z,98.85
2018-12-31T02:16:05.688Z,99.06
2018-12-31T02:17:05.700Z,98.96
2018-12-31T02:18:05.665Z,99.06
2018-12-31T02:19:05.654Z,98.96
2018-12-31T02:20:05.665Z,98.75
2018-12-31T02:21:05.630Z,98.44
2018-12-31T02:22:05.619Z,98.96
2018-12-31T02:23:05.636Z,99.06
2018-12-31T02:24:05.594Z,98.96
2018-12-31T02:25:05.612Z,99.48
2018-12-31T02:26:05.590Z,99.48
2018-12-31T02:27:05.558Z,99.90
2018-12-31T02:28:05.549Z,99.16
2018-12-31T02:29:05.564Z,99.58
2018-12-31T02:30:05.542Z,99.58
2018-12-31T02:31:05.531Z,99.16
2018-12-31T02:32:05.503Z,99.37
2018-12-31T02:33:05.493Z,99.16
2018-12-31T02:34:05.487Z,99.37
2018-12-31T02:35:05.490Z,99.48
2018-12-31T02:36:05.474Z,99.58
2018-12-31T02:37:05.448Z,99.16
2018-12-31T02:38:05.437Z,99.68
2018-12-31T02:39:05.429Z,99.58
2018-12-31T02:40:05.414Z,99.68
2018-12-31T02:41:05.422Z,99.16
2018-12-31T02:42:05.905Z,99.22
2018-12-31T02:43:05.384Z,99.12
2018-12-31T02:44:05.368Z,99.58
2018-12-31T02:45:05.359Z,99.95
2018-12-31T02:46:05.344Z,99.99
2018-12-31T02:47:05.378Z,99.74
2018-12-31T02:48:05.323Z,99.95
2018-12-31T02:49:05.312Z,99.95
2018-12-31T02:50:05.307Z,99.95
2018-12-31T02:51:05.292Z,99.64
2018-12-31T02:52:05.287Z,99.95
2018-12-31T02:53:05.307Z,99.95
2018-12-31T02:54:05.257Z,99.64
2018-12-31T02:55:05.250Z,99.64
2018-12-31T02:56:05.228Z,99.95
2018-12-31T02:57:05.224Z,99.68
2018-12-31T02:58:05.225Z,99.74
2018-12-31T02:59:05.214Z,99.12
2018-12-31T03:00:05.187Z,98.85
2018-12-31T03:01:05.181Z,98.65
2018-12-31T03:02:05.185Z,99.02
2018-12-31T03:03:05.159Z,99.02
2018-12-31T03:04:05.146Z,99.16
2018-12-31T03:05:05.171Z,99.06
2018-12-31T03:06:05.126Z,99.16
2018-12-31T03:07:05.111Z,98.91
2018-12-31T03:08:05.108Z,98.96
2018-12-31T03:09:05.087Z,99.06
2018-12-31T03:10:05.106Z,98.81
2018-12-31T03:11:05.066Z,99.06
2018-12-31T03:12:05.052Z,98.65
2018-12-31T03:13:05.049Z,98.44
2018-12-31T03:14:05.030Z,98.44
2018-12-31T03:15:05.016Z,99.16
2018-12-31T03:16:05.041Z,98.85
2018-12-31T03:17:04.997Z,98.96
2018-12-31T03:18:04.990Z,99.16
2018-12-31T03:19:04.978Z,99.16
2018-12-31T03:20:04.963Z,99.06
2018-12-31T03:21:04.951Z,98.65
2018-12-31T03:22:04.960Z,98.75
2018-12-31T03:23:04.931Z,98.75
2018-12-31T03:24:04.920Z,98.65
2018-12-31T03:25:04.909Z,98.96
2018-12-31T03:26:04.898Z,98.85
2018-12-31T03:27:04.892Z,98.96
2018-12-31T03:28:04.897Z,99.16
2018-12-31T03:29:04.862Z,99.68
2018-12-31T03:30:04.850Z,98.96
2018-12-31T03:31:04.837Z,99.68
2018-12-31T03:32:04.826Z,99.43
2018-12-31T03:33:04.824Z,99.48
2018-12-31T03:34:04.897Z,99.33
2018-12-31T03:35:04.799Z,99.16
2018-12-31T03:36:04.784Z,99.12
2018-12-31T03:37:04.775Z,99.33
2018-12-31T03:38:04.759Z,99.33
2018-12-31T03:39:04.775Z,99.99
2018-12-31T03:40:04.761Z,99.64
2018-12-31T03:41:04.728Z,99.74
2018-12-31T03:42:04.715Z,99.79
2018-12-31T03:43:04.710Z,99.95
2018-12-31T03:44:04.701Z,99.95
2018-12-31T03:45:04.686Z,99.74
2018-12-31T03:46:04.687Z,99.74
2018-12-31T03:47:04.652Z,99.95
2018-12-31T03:48:04.646Z,99.74
2018-12-31T03:49:04.654Z,99.48
2018-12-31T03:50:04.625Z,99.43
2018-12-31T03:51:04.618Z,99.99
2018-12-31T03:52:04.622Z,99.43
2018-12-31T03:53:04.596Z,99.43
2018-12-31T03:54:04.576Z,99.64
2018-12-31T03:55:04.595Z,99.22
2018-12-31T03:56:04.557Z,98.65
2018-12-31T03:57:04.541Z,99.02
2018-12-31T03:58:04.553Z,98.71
2018-12-31T03:59:04.536Z,98.81
2018-12-31T04:00:04.511Z,99.06
2018-12-31T04:01:04.511Z,98.71
2018-12-31T04:02:04.485Z,98.71
2018-12-31T04:03:04.490Z,98.71
2018-12-31T04:04:04.492Z,98.71
2018-12-31T04:05:04.454Z,98.81
2018-12-31T04:06:04.608Z,98.75
2018-12-31T04:07:04.477Z,99.02
2018-12-31T04:08:04.427Z,98.91
2018-12-31T04:09:04.418Z,98.75
2018-12-31T04:10:04.418Z,99.12
2018-12-31T04:11:04.402Z,98.65
2018-12-31T04:12:04.380Z,99.02
2018-12-31T04:13:04.365Z,99.22
2018-12-31T04:14:04.354Z,99.12
2018-12-31T04:15:04.338Z,99.02
2018-12-31T04:16:04.363Z,99.02
2018-12-31T04:17:04.324Z,99.06
2018-12-31T04:18:04.307Z,98.96
2018-12-31T04:19:04.294Z,98.50
2018-12-31T04:20:04.285Z,98.65
2018-12-31T04:21:04.304Z,99.06
2018-12-31T04:22:04.283Z,98.96
2018-12-31T04:23:04.246Z,99.02
2018-12-31T04:24:04.239Z,99.12
2018-12-31T04:25:04.230Z,98.91
2018-12-31T04:26:04.219Z,98.81
2018-12-31T04:27:04.228Z,98.39
2018-12-31T04:28:04.236Z,99.06
2018-12-31T04:29:04.183Z,98.50
2018-12-31T04:30:04.175Z,98.71
2018-12-31T04:31:04.160Z,99.12
2018-12-31T04:32:04.203Z,98.60
2018-12-31T04:33:04.169Z,98.81
2018-12-31T04:34:04.144Z,98.91
2018-12-31T04:35:04.118Z,98.91
2018-12-31T04:36:04.106Z,99.64
2018-12-31T04:37:04.096Z,99.64
2018-12-31T04:38:04.103Z,99.43
2018-12-31T04:39:04.071Z,99.48
2018-12-31T04:40:04.075Z,99.22
2018-12-31T04:41:04.052Z,99.12
2018-12-31T04:42:04.035Z,99.58
2018-12-31T04:43:04.045Z,99.16
2018-12-31T04:44:04.012Z,99.06
2018-12-31T04:45:04.021Z,98.96
2018-12-31T04:46:04.018Z,98.96
2018-12-31T04:47:03.978Z,99.27
2018-12-31T04:48:03.977Z,99.64
2018-12-31T04:49:03.967Z,99.58
2018-12-31T04:50:03.944Z,99.64
2018-12-31T04:51:03.934Z,99.68
2018-12-31T04:52:03.948Z,99.85
2018-12-31T04:53:03.906Z,99.85
2018-12-31T04:54:03.909Z,99.68
2018-12-31T04:55:03.891Z,99.68
2018-12-31T04:56:03.882Z,99.85
2018-12-31T04:57:03.867Z,99.58
2018-12-31T04:58:03.894Z,99.16
2018-12-31T04:59:03.851Z,99.54
2018-12-31T05:00:03.833Z,99.48
2018-12-31T05:01:03.821Z,99.58
2018-12-31T05:02:03.808Z,99.27
2018-12-31T05:03:03.796Z,99.16
2018-12-31T05:04:03.818Z,99.37
2018-12-31T05:05:03.773Z,99.16
2018-12-31T05:06:03.756Z,99.48
2018-12-31T05:07:03.751Z,99.37
2018-12-31T05:08:03.741Z,99.85
2018-12-31T05:09:03.737Z,99.74
2018-12-31T05:10:03.742Z,99.48
2018-12-31T05:11:03.707Z,99.33
2018-12-31T05:12:03.729Z,99.22
2018-12-31T05:13:03.683Z,99.12
2018-12-31T05:14:03.709Z,99.27
2018-12-31T05:15:03.673Z,99.16
2018-12-31T05:16:03.679Z,99.16
2018-12-31T05:17:03.643Z,99.48
2018-12-31T05:18:03.627Z,99.37
2018-12-31T05:19:03.617Z,99.06
2018-12-31T05:20:03.635Z,99.06
2018-12-31T05:21:03.594Z,99.06
2018-12-31T05:22:03.603Z,99.06
2018-12-31T05:23:05.355Z,99.27
2018-12-31T05:24:03.562Z,99.68
2018-12-31T05:25:03.547Z,99.58
2018-12-31T05:26:03.550Z,99.16
2018-12-31T05:27:03.523Z,99.16
2018-12-31T05:28:03.541Z,99.16
2018-12-31T05:29:03.506Z,99.58
2018-12-31T05:30:03.492Z,99.68
2018-12-31T05:31:03.491Z,99.68
2018-12-31T05:32:03.471Z,99.48
2018-12-31T05:33:03.459Z,99.06
2018-12-31T05:34:03.478Z,99.68
2018-12-31T05:35:03.439Z,99.90
2018-12-31T05:36:03.432Z,99.68
2018-12-31T05:37:03.413Z,99.90
2018-12-31T05:38:03.405Z,99.16
2018-12-31T05:39:03.396Z,99.58
2018-12-31T05:40:03.399Z,99.16
2018-12-31T05:41:03.375Z,99.12
2018-12-31T05:42:03.353Z,99.68
2018-12-31T05:43:03.353Z,99.68
2018-12-31T05:44:03.336Z,99.64
2018-12-31T05:45:03.327Z,99.48
2018-12-31T05:46:03.356Z,99.48
2018-12-31T05:47:03.301Z,99.48
2018-12-31T05:48:03.288Z,99.68
2018-12-31T05:49:03.281Z,99.16
2018-12-31T05:50:03.271Z,99.54
2018-12-31T05:51:03.270Z,99.37
2018-12-31T05:52:03.266Z,99.37
2018-12-31T05:53:03.233Z,99.58
2018-12-31T05:54:03.224Z,99.27
2018-12-31T05:55:03.206Z,99.58
2018-12-31T05:56:03.215Z,99.16
2018-12-31T05:57:03.186Z,99.64
2018-12-31T05:58:03.198Z,99.68
2018-12-31T05:59:03.174Z,99.68
2018-12-31T06:00:03.161Z,99.58
2018-12-31T06:01:03.135Z,99.68
2018-12-31T06:02:03.140Z,99.58
2018-12-31T06:03:03.186Z,99.68
2018-12-31T06:04:03.101Z,99.06
2018-12-31T06:05:03.119Z,99.02
2018-12-31T06:06:03.129Z,98.85
2018-12-31T06:07:03.093Z,99.06
2018-12-31T06:08:03.061Z,99.02
2018-12-31T06:09:03.050Z,99.12
2018-12-31T06:10:03.041Z,99.48
2018-12-31T06:11:03.050Z,99.58
2018-12-31T06:12:03.013Z,99.74
2018-12-31T06:13:03.031Z,99.64
2018-12-31T06:14:02.999Z,99.43
2018-12-31T06:15:02.984Z,99.54
2018-12-31T06:16:02.970Z,99.12
2018-12-31T06:17:02.981Z,99.43
2018-12-31T06:18:02.947Z,99.48
2018-12-31T06:19:02.954Z,99.43
2018-12-31T06:20:02.919Z,99.12
2018-12-31T06:21:02.915Z,99.12
2018-12-31T06:22:02.906Z,99.22
2018-12-31T06:23:02.917Z,99.12
2018-12-31T06:24:02.890Z,99.22
2018-12-31T06:25:02.868Z,99.16
2018-12-31T06:26:02.857Z,99.12
2018-12-31T06:27:02.840Z,99.43
2018-12-31T06:28:02.906Z,99.58
2018-12-31T06:29:02.852Z,99.85
2018-12-31T06:30:02.804Z,99.58
2018-12-31T06:31:02.803Z,99.37
2018-12-31T06:32:02.794Z,99.27
2018-12-31T06:33:02.783Z,99.37
2018-12-31T06:34:02.773Z,99.90
2018-12-31T06:35:02.770Z,99.99
2018-12-31T06:36:02.743Z,99.64
2018-12-31T06:37:02.730Z,99.95
2018-12-31T06:38:02.722Z,99.95
2018-12-31T06:39:02.723Z,99.85
2018-12-31T06:40:02.700Z,99.79
2018-12-31T06:41:02.699Z,99.64
2018-12-31T06:42:02.673Z,99.68
2018-12-31T06:43:02.664Z,99.54
2018-12-31T06:44:02.698Z,99.64
2018-12-31T06:45:02.642Z,99.64
2018-12-31T06:46:02.630Z,99.48
2018-12-31T06:47:02.646Z,99.54
2018-12-31T06:48:02.611Z,99.79
2018-12-31T06:49:02.595Z,99.74
2018-12-31T06:50:02.608Z,99.54
2018-12-31T06:51:02.575Z,99.74
2018-12-31T06:52:02.560Z,99.95
2018-12-31T06:53:02.576Z,99.74
2018-12-31T06:54:02.539Z,99.68
2018-12-31T06:55:02.526Z,99.33
2018-12-31T06:56:02.529Z,99.64
2018-12-31T06:57:02.499Z,99.64
2018-12-31T06:58:02.501Z,99.43
2018-12-31T06:59:02.510Z,99.95
2018-12-31T07:00:02.471Z,99.74
2018-12-31T07:01:02.480Z,99.64
2018-12-31T07:02:02.449Z,99.95
2018-12-31T07:03:02.435Z,99.74
2018-12-31T07:04:02.431Z,99.74
2018-12-31T07:05:02.436Z,99.64
2018-12-31T07:06:02.406Z,99.64
2018-12-31T07:07:02.403Z,99.74
2018-12-31T07:08:02.380Z,99.64
2018-12-31T07:09:02.369Z,99.85
2018-12-31T07:10:02.361Z,99.85
2018-12-31T07:11:02.365Z,99.85
2018-12-31T07:12:02.351Z,99.99
2018-12-31T07:13:02.327Z,99.99
2018-12-31T07:14:02.312Z,99.99
2018-12-31T07:15:02.303Z,99.99
2018-12-31T07:16:02.296Z,99.99
2018-12-31T07:17:02.356Z,99.99
2018-12-31T07:18:02.270Z,99.85
2018-12-31T07:19:02.264Z,99.99
2018-12-31T07:20:02.245Z,99.85
2018-12-31T07:21:02.237Z,99.99
2018-12-31T07:22:02.237Z,99.85
2018-12-31T07:23:02.236Z,99.85
2018-12-31T07:24:02.201Z,99.99
2018-12-31T07:25:02.187Z,99.99
2018-12-31T07:26:02.200Z,99.99
2018-12-31T07:27:02.184Z,99.95
2018-12-31T07:28:02.165Z,99.99
2018-12-31T07:29:02.166Z,99.99
2018-12-31T07:30:02.134Z,99.85
2018-12-31T07:31:02.116Z,99.99
2018-12-31T07:32:02.113Z,99.99
2018-12-31T07:33:02.118Z,99.99
2018-12-31T07:34:02.081Z,99.99
2018-12-31T07:35:02.096Z,99.99
2018-12-31T07:36:02.063Z,99.99
2018-12-31T07:37:02.049Z,99.99
2018-12-31T07:38:02.071Z,99.99
2018-12-31T07:39:02.036Z,99.99
2018-12-31T07:40:02.015Z,99.99
2018-12-31T07:41:02.037Z,99.99
2018-12-31T07:42:01.999Z,99.99
2018-12-31T07:43:01.987Z,99.99
2018-12-31T07:44:01.987Z,99.99
2018-12-31T07:45:01.963Z,99.99
2018-12-31T07:46:01.953Z,99.99
2018-12-31T07:47:01.966Z,99.99
2018-12-31T07:48:01.924Z,99.99
2018-12-31T07:49:01.922Z,99.99
2018-12-31T07:50:01.907Z,99.80
2018-12-31T07:51:01.897Z,99.95
2018-12-31T07:52:01.880Z,99.85
2018-12-31T07:53:01.888Z,99.95
2018-12-31T07:54:01.935Z,99.64
2018-12-31T07:55:01.847Z,99.74
2018-12-31T07:56:02.907Z,99.43
2018-12-31T07:57:01.827Z,99.22
2018-12-31T07:58:01.836Z,99.33
2018-12-31T07:59:01.888Z,99.12
2018-12-31T08:00:01.794Z,99.74
2018-12-31T08:01:01.783Z,99.74
2018-12-31T08:02:01.768Z,99.85
2018-12-31T08:03:01.759Z,99.12
2018-12-31T08:04:01.784Z,99.12
2018-12-31T08:05:01.734Z,98.97
2018-12-31T08:06:01.727Z,99.33
2018-12-31T08:07:01.711Z,99.02
2018-12-31T08:08:01.705Z,98.60
2018-12-31T08:09:01.701Z,97.98
2018-12-31T08:10:01.702Z,98.08
2018-12-31T08:11:01.669Z,97.77
2018-12-31T08:12:01.662Z,97.35
2018-12-31T08:13:01.646Z,97.45
2018-12-31T08:14:01.647Z,97.35
2018-12-31T08:15:01.621Z,97.35
2018-12-31T08:16:01.626Z,97.35
2018-12-31T08:17:01.607Z,97.67
2018-12-31T08:18:01.590Z,97.62
2018-12-31T08:19:01.593Z,97.62
2018-12-31T08:20:01.570Z,97.41
2018-12-31T08:21:01.559Z,97.98
2018-12-31T08:22:01.579Z,97.41
2018-12-31T08:23:01.536Z,97.83
2018-12-31T08:24:01.526Z,97.25
2018-12-31T08:25:01.514Z,96.21
2018-12-31T08:26:01.503Z,95.79
2018-12-31T08:27:01.485Z,96.00
2018-12-31T08:28:01.498Z,95.79
2018-12-31T08:29:01.481Z,95.69
2018-12-31T08:30:01.457Z,95.69
2018-12-31T08:31:01.457Z,95.38
2018-12-31T08:32:01.439Z,96.31
2018-12-31T08:33:01.426Z,95.28
2018-12-31T08:34:01.445Z,95.07
2018-12-31T08:35:01.397Z,95.38
2018-12-31T08:36:01.388Z,95.48
2018-12-31T08:37:01.371Z,95.48
2018-12-31T08:38:01.368Z,95.69
2018-12-31T08:39:01.371Z,95.59
2018-12-31T08:40:01.362Z,95.79
2018-12-31T08:41:01.330Z,95.48
2018-12-31T08:42:01.320Z,96.11
2018-12-31T08:43:01.314Z,95.79
2018-12-31T08:44:01.325Z,96.11
2018-12-31T08:45:01.287Z,96.11
2018-12-31T08:46:01.277Z,96.21
2018-12-31T08:47:01.283Z,96.62
2018-12-31T08:48:01.258Z,96.89
2018-12-31T08:49:01.250Z,96.73
2018-12-31T08:50:03.098Z,96.58
2018-12-31T08:51:01.218Z,96.79
2018-12-31T08:52:01.215Z,97.10
2018-12-31T08:53:01.200Z,96.73
2018-12-31T08:54:01.208Z,95.96
2018-12-31T08:55:01.183Z,96.17
2018-12-31T08:56:01.161Z,96.79
2018-12-31T08:57:01.151Z,96.58
2018-12-31T08:58:01.148Z,96.89
2018-12-31T08:59:01.142Z,96.89
2018-12-31T09:00:01.149Z,97.10
2018-12-31T09:01:01.098Z,97.06
2018-12-31T09:02:01.602Z,97.10
2018-12-31T09:03:01.078Z,95.96
2018-12-31T09:04:01.070Z,95.75
2018-12-31T09:05:01.087Z,96.17
2018-12-31T09:06:01.076Z,95.86
2018-12-31T09:07:01.036Z,96.27
2018-12-31T09:08:01.030Z,95.96
2018-12-31T09:09:01.007Z,95.54
2018-12-31T09:10:01.007Z,95.65
2018-12-31T09:11:01.026Z,96.17
2018-12-31T09:12:01.004Z,96.17
2018-12-31T09:13:00.965Z,95.65
2018-12-31T09:14:00.961Z,95.92
2018-12-31T09:15:00.949Z,95.71
2018-12-31T09:16:00.933Z,95.81
2018-12-31T09:17:00.934Z,96.75
2018-12-31T09:18:00.929Z,96.95
2018-12-31T09:19:00.895Z,96.12
2018-12-31T09:20:00.892Z,96.12
2018-12-31T09:21:00.877Z,95.61
2018-12-31T09:22:00.962Z,95.67
2018-12-31T09:23:00.849Z,95.36
2018-12-31T09:24:00.863Z,95.36
2018-12-31T09:25:00.829Z,95.15
2018-12-31T09:26:00.823Z,95.25
2018-12-31T09:27:00.824Z,94.84
2018-12-31T09:28:00.797Z,94.94
2018-12-31T09:29:00.793Z,95.56
2018-12-31T09:30:00.796Z,95.15
2018-12-31T09:31:00.767Z,95.04
2018-12-31T09:32:00.781Z,94.84
2018-12-31T09:33:00.742Z,93.80
2018-12-31T09:34:00.730Z,94.73
2018-12-31T09:35:00.711Z,94.84
2018-12-31T09:36:00.725Z,94.63
2018-12-31T09:37:00.694Z,93.07
2018-12-31T09:38:00.714Z,92.97
2018-12-31T09:39:00.680Z,93.38
2018-12-31T09:40:00.664Z,92.76
2018-12-31T09:41:00.653Z,92.86
2018-12-31T09:42:00.661Z,93.33
2018-12-31T09:43:00.629Z,93.28
2018-12-31T09:44:00.633Z,92.97
2018-12-31T09:45:00.612Z,93.44
2018-12-31T09:46:00.591Z,93.33
2018-12-31T09:47:00.590Z,93.75
2018-12-31T09:48:00.573Z,93.59
2018-12-31T09:49:00.608Z,93.85
2018-12-31T09:50:00.549Z,93.70
2018-12-31T09:51:00.535Z,93.13
2018-12-31T09:52:00.523Z,93.28
2018-12-31T09:53:00.518Z,93.65
2018-12-31T09:54:00.499Z,94.48
2018-12-31T09:55:00.532Z,93.33
2018-12-31T09:56:00.485Z,93.02
2018-12-31T09:57:00.472Z,93.13
2018-12-31T09:58:00.462Z,93.96
2018-12-31T09:59:00.450Z,93.44
2018-12-31T10:00:00.460Z,93.96
2018-12-31T10:01:00.435Z,94.06
2018-12-31T10:02:00.414Z,94.68
2018-12-31T10:03:00.397Z,95.20
2018-12-31T10:04:00.389Z,95.26
2018-12-31T10:05:00.390Z,94.58
2018-12-31T10:06:00.365Z,93.54
2018-12-31T10:07:00.397Z,93.13
2018-12-31T10:08:00.346Z,93.54
2018-12-31T10:09:00.449Z,93.23
2018-12-31T10:10:00.353Z,92.72
2018-12-31T10:11:00.313Z,93.13
2018-12-31T10:12:00.302Z,93.65
2018-12-31T10:13:00.294Z,93.75
2018-12-31T10:14:00.307Z,93.44
2018-12-31T10:15:00.284Z,94.06
2018-12-31T10:16:00.252Z,94.48
2018-12-31T10:17:00.243Z,93.75
2018-12-31T10:18:00.901Z,94.06
2018-12-31T10:19:00.217Z,93.65
2018-12-31T10:20:00.250Z,93.13
2018-12-31T10:21:00.274Z,93.65
2018-12-31T10:22:00.186Z,94.06
2018-12-31T10:23:00.187Z,93.65
2018-12-31T10:24:00.164Z,93.65
2018-12-31T10:25:00.183Z,93.96
2018-12-31T10:26:00.159Z,93.96
2018-12-31T10:27:00.139Z,94.48
2018-12-31T10:28:00.119Z,94.89
2018-12-31T10:29:00.114Z,94.74
2018-12-31T10:30:00.186Z,94.79
2018-12-31T10:31:00.110Z,94.54
2018-12-31T10:32:00.099Z,94.43
2018-12-31T10:33:00.064Z,94.58
2018-12-31T10:34:00.053Z,94.74
2018-12-31T10:35:00.043Z,94.54
2018-12-31T10:36:00.054Z,94.54
2018-12-31T10:37:00.027Z,94.43
2018-12-31T10:38:00.031Z,93.60
2018-12-31T10:38:59.994Z,94.12
2018-12-31T10:39:59.983Z,94.08
2018-12-31T10:40:59.978Z,93.50
2018-12-31T10:41:59.986Z,93.40
2018-12-31T10:42:59.953Z,92.68
2018-12-31T10:43:59.958Z,92.16
2018-12-31T10:44:59.934Z,92.68
2018-12-31T10:45:59.920Z,93.04
2018-12-31T10:46:59.917Z,93.19
2018-12-31T10:47:59.911Z,92.98
2018-12-31T10:48:59.880Z,93.50
2018-12-31T10:49:59.871Z,93.98
2018-12-31T10:50:59.947Z,93.50
2018-12-31T10:51:59.846Z,93.66
2018-12-31T10:52:59.845Z,93.56
2018-12-31T10:53:59.822Z,93.77
2018-12-31T10:54:59.816Z,93.46
2018-12-31T10:55:59.801Z,93.25
2018-12-31T10:56:59.813Z,91.91
2018-12-31T10:57:59.791Z,91.91
2018-12-31T10:58:59.768Z,91.70
2018-12-31T10:59:59.748Z,91.80
2018-12-31T11:00:59.751Z,92.22
2018-12-31T11:01:59.737Z,91.60
2018-12-31T11:02:59.758Z,91.74
2018-12-31T11:03:59.713Z,91.95
2018-12-31T11:04:59.701Z,91.28
2018-12-31T11:05:59.696Z,91.85
2018-12-31T11:06:59.678Z,92.57
2018-12-31T11:07:59.693Z,91.74
2018-12-31T11:08:59.679Z,92.16
2018-12-31T11:09:59.640Z,92.26
2018-12-31T11:10:59.629Z,92.26
2018-12-31T11:11:59.619Z,92.63
2018-12-31T11:12:59.616Z,92.16
2018-12-31T11:13:59.619Z,92.88
2018-12-31T11:14:59.615Z,92.26
2018-12-31T11:15:59.591Z,92.94
2018-12-31T11:16:59.565Z,93.25
2018-12-31T11:17:59.550Z,93.19
2018-12-31T11:18:59.539Z,92.98
2018-12-31T11:19:59.563Z,92.53
2018-12-31T11:20:59.541Z,93.08
2018-12-31T11:21:59.505Z,93.15
2018-12-31T11:22:59.496Z,93.25
2018-12-31T11:23:59.483Z,93.60
2018-12-31T11:24:59.482Z,93.46
2018-12-31T11:25:59.471Z,93.66
2018-12-31T11:26:59.478Z,93.60
2018-12-31T11:27:59.439Z,93.81
2018-12-31T11:28:59.425Z,94.64
2018-12-31T11:29:59.417Z,94.54
2018-12-31T11:30:59.417Z,94.85
2018-12-31T11:31:59.455Z,94.85
2018-12-31T11:32:59.426Z,94.64
2018-12-31T11:33:59.369Z,94.74
2018-12-31T11:34:59.365Z,95.01
2018-12-31T11:35:59.358Z,95.01
2018-12-31T11:36:59.344Z,94.70
2018-12-31T11:37:59.324Z,94.95
2018-12-31T11:38:59.331Z,95.16
2018-12-31T11:39:59.302Z,95.06
2018-12-31T11:40:59.304Z,95.16
2018-12-31T11:41:59.279Z,94.85
2018-12-31T11:42:59.273Z,94.74
2018-12-31T11:43:59.255Z,94.54
2018-12-31T11:44:59.265Z,95.57
2018-12-31T11:45:59.251Z,95.16
2018-12-31T11:46:59.229Z,95.16
2018-12-31T11:47:59.210Z,95.26
2018-12-31T11:48:59.209Z,95.57
2018-12-31T11:49:59.745Z,95.26
2018-12-31T11:50:59.224Z,95.47
2018-12-31T11:51:59.167Z,94.89
2018-12-31T11:52:59.154Z,95.06
2018-12-31T11:53:59.151Z,95.16
2018-12-31T11:54:59.129Z,95.41
2018-12-31T11:55:59.134Z,96.20
2018-12-31T11:56:59.128Z,95.89
2018-12-31T11:57:59.098Z,95.68
2018-12-31T11:58:59.090Z,94.95
2018-12-31T11:59:59.078Z,95.78
2018-12-31T12:00:59.074Z,95.89
2018-12-31T12:01:59.051Z,95.89
2018-12-31T12:02:59.066Z,95.37
2018-12-31T12:03:59.026Z,95.37
2018-12-31T12:04:59.018Z,95.51
2018-12-31T12:05:59.030Z,95.68
2018-12-31T12:06:58.999Z,95.37
2018-12-31T12:07:58.982Z,95.16
2018-12-31T12:08:58.988Z,95.68
2018-12-31T12:09:59.621Z,95.37
2018-12-31T12:10:58.978Z,95.57
2018-12-31T12:11:58.941Z,95.47
2018-12-31T12:12:58.934Z,95.31
2018-12-31T12:13:58.913Z,95.37
2018-12-31T12:14:58.932Z,95.16
2018-12-31T12:15:58.890Z,95.06
2018-12-31T12:16:58.905Z,95.68
2018-12-31T12:17:58.876Z,95.68
2018-12-31T12:18:58.865Z,95.57
2018-12-31T12:19:58.849Z,95.78
2018-12-31T12:20:58.857Z,95.99
2018-12-31T12:21:58.829Z,95.57
2018-12-31T12:22:58.832Z,95.37
2018-12-31T12:23:58.800Z,95.47
2018-12-31T12:24:58.799Z,95.37
2018-12-31T12:25:58.781Z,95.68
2018-12-31T12:26:58.792Z,95.78
2018-12-31T12:27:58.779Z,94.95
2018-12-31T12:28:58.748Z,95.78
2018-12-31T12:29:58.733Z,95.37
2018-12-31T12:30:58.722Z,95.57
2018-12-31T12:31:58.711Z,95.68
2018-12-31T12:32:58.731Z,95.47
2018-12-31T12:33:58.712Z,95.99
2018-12-31T12:34:58.678Z,95.72
2018-12-31T12:35:58.678Z,95.37
2018-12-31T12:36:58.658Z,95.20
2018-12-31T12:37:58.640Z,95.89
2018-12-31T12:38:58.668Z,95.68
2018-12-31T12:39:58.620Z,95.89
2018-12-31T12:40:58.610Z,95.99
2018-12-31T12:41:58.596Z,95.99
2018-12-31T12:42:58.606Z,95.78
2018-12-31T12:43:58.595Z,96.03
2018-12-31T12:44:58.593Z,96.03
2018-12-31T12:45:58.554Z,95.99
2018-12-31T12:46:58.537Z,96.03
2018-12-31T12:47:58.532Z,96.61
2018-12-31T12:48:58.538Z,96.03
2018-12-31T12:49:58.517Z,95.89
2018-12-31T12:50:58.493Z,95.99
2018-12-31T12:51:58.510Z,96.51